Time;durP1;ratioP1;P1;durP2;ratioP2;P2;SDS_P1;SDS_P2;PMS_P1;PMS_P2;Temp;Humidity;BMP_temperature;BMP_pressure;BME280_temperature;BME280_humidity;BME280_pressure;Samples;Min_cycle;Max_cycle;Signal;HPM_P1;HPM_P2
2023/07/16 00:02:04;;;;;;;7.30;3.90;;;;;;;19.60;66.41;99442.52;78347;1294;3025716;-63
2023/07/16 00:04:32;;;;;;;7.70;3.50;;;;;;;19.60;66.41;99440.88;79512;1295;3014494;-64
2023/07/16 00:07:01;;;;;;;10.50;4.00;;;;;;;19.59;66.60;99441.84;79546;1295;3011724;-66
2023/07/16 00:09:29;;;;;;;10.00;3.90;;;;;;;19.57;66.67;99440.66;78284;1298;3052630;-63
2023/07/16 00:11:56;;;;;;;8.00;3.10;;;;;;;19.57;66.67;99441.41;79668;1298;3013063;-65
2023/07/16 00:14:23;;;;;;;10.90;3.10;;;;;;;19.57;66.69;99442.98;79614;1307;3011614;-63
2023/07/16 00:16:51;;;;;;;8.50;3.20;;;;;;;19.59;66.58;99441.64;78190;1298;3028335;-62
2023/07/16 00:19:18;;;;;;;8.80;2.60;;;;;;;19.58;66.95;99438.83;79490;1295;3018447;-62
2023/07/16 00:21:44;;;;;;;11.90;3.70;;;;;;;19.58;67.01;99449.45;79379;1298;3011511;-63
2023/07/16 00:24:12;;;;;;;5.80;2.40;;;;;;;19.60;66.92;99445.84;78229;1298;3029309;-60
2023/07/16 00:26:38;;;;;;;8.30;2.70;;;;;;;19.63;67.17;99442.18;79444;1298;3013000;-63
2023/07/16 00:29:05;;;;;;;12.60;4.80;;;;;;;19.61;67.46;99441.46;79489;1298;3011688;-62
2023/07/16 00:31:34;;;;;;;5.40;3.30;;;;;;;19.62;67.24;99443.50;78229;1298;3069384;-61
2023/07/16 00:34:01;;;;;;;6.40;2.90;;;;;;;19.59;67.55;99441.86;79414;1295;3018901;-63
2023/07/16 00:36:27;;;;;;;7.20;2.70;;;;;;;19.59;67.65;99440.96;79309;1300;3011483;-62
2023/07/16 00:38:55;;;;;;;6.00;2.60;;;;;;;19.59;67.85;99440.04;78248;1299;3028500;-60
2023/07/16 00:41:22;;;;;;;4.20;3.10;;;;;;;19.62;68.25;99442.85;79479;1298;3014444;-61
2023/07/16 00:43:49;;;;;;;8.50;4.60;;;;;;;20.17;67.19;99440.27;79484;1298;3013396;-62
2023/07/16 00:46:19;;;;;;;9.60;5.20;;;;;;;20.54;65.65;99433.98;78274;1298;3068080;-61
2023/07/16 00:48:45;;;;;;;15.60;6.20;;;;;;;20.53;65.76;99435.15;79450;1295;3013596;-62
2023/07/16 00:51:12;;;;;;;9.20;5.00;;;;;;;20.45;66.38;99434.35;79578;1295;3011596;-62
2023/07/16 00:53:41;;;;;;;9.40;5.20;;;;;;;20.32;66.89;99437.84;78169;1296;3027457;-62
2023/07/16 00:56:08;;;;;;;10.30;4.60;;;;;;;20.15;67.42;99438.95;79379;1301;3013344;-63
2023/07/16 00:58:35;;;;;;;7.80;3.60;;;;;;;19.97;68.31;99439.39;79461;1299;3014026;-64
2023/07/16 01:01:03;;;;;;;8.30;4.00;;;;;;;19.90;68.76;99446.50;78158;1295;3069754;-64
2023/07/16 01:03:30;;;;;;;7.20;3.60;;;;;;;19.78;69.20;99446.72;79511;1295;3013221;-61
2023/07/16 01:06:18;;;;;;;11.40;4.90;;;;;;;19.67;69.74;99443.03;79407;1301;3012975;-61
2023/07/16 01:09:07;;;;;;;12.00;4.70;;;;;;;19.58;69.78;99443.55;78269;1298;3054158;-62
2023/07/16 01:11:36;;;;;;;12.50;5.60;;;;;;;19.51;70.02;99438.36;78300;1296;3050353;-63
2023/07/16 01:14:03;;;;;;;10.70;4.90;;;;;;;19.49;70.20;99443.23;79414;1302;3021134;-64
2023/07/16 01:16:29;;;;;;;11.40;5.20;;;;;;;20.02;68.60;99444.20;79561;1298;3011609;-63
2023/07/16 01:18:58;;;;;;;9.60;4.10;;;;;;;20.37;66.76;99439.65;78235;1298;3028808;-60
2023/07/16 01:21:24;;;;;;;11.40;5.00;;;;;;;20.33;66.28;99443.39;79392;1295;3020748;-65
2023/07/16 01:24:01;;;;;;;7.60;3.20;;;;;;;20.11;66.46;99442.44;79402;1298;3011577;-62
2023/07/16 01:26:36;;;;;;;5.90;2.90;;;;;;;19.95;66.60;99451.38;78302;1295;3050187;-62
2023/07/16 01:29:27;;;;;;;6.20;3.00;;;;;;;19.86;66.79;99445.27;78911;1295;3011905;-63
2023/07/16 01:31:56;;;;;;;6.30;3.00;;;;;;;19.67;67.36;99446.06;78164;1298;3052830;-64
2023/07/16 01:34:24;;;;;;;7.60;3.10;;;;;;;19.61;67.32;99444.74;79443;1295;3013725;-64
2023/07/16 01:36:51;;;;;;;6.00;3.80;;;;;;;19.54;67.19;99441.85;79392;1296;3013086;-64
2023/07/16 01:39:19;;;;;;;6.90;3.90;;;;;;;19.38;67.88;99445.38;78266;1298;3056263;-60
2023/07/16 01:41:46;;;;;;;5.80;3.80;;;;;;;19.34;68.37;99442.52;79487;1295;3013507;-64
2023/07/16 01:44:13;;;;;;;8.90;4.60;;;;;;;19.25;68.20;99444.61;79470;1296;3011566;-63
2023/07/16 01:46:41;;;;;;;9.50;4.40;;;;;;;19.17;68.34;99447.91;78200;1295;3026138;-63
2023/07/16 01:49:07;;;;;;;16.50;6.30;;;;;;;19.14;68.14;99445.21;79466;1298;3011477;-62
2023/07/16 01:51:34;;;;;;;18.80;8.20;;;;;;;19.12;68.24;99448.00;79465;1295;3013046;-63
2023/07/16 01:54:03;;;;;;;16.20;7.40;;;;;;;19.03;68.68;99450.69;78230;1298;3028435;-61
2023/07/16 01:56:31;;;;;;;14.60;5.60;;;;;;;18.98;68.35;99458.27;79543;1297;3012927;-63
2023/07/16 01:59:00;;;;;;;12.20;5.60;;;;;;;18.90;69.24;99460.20;79020;1295;3011779;-60
2023/07/16 02:01:27;;;;;;;13.60;5.80;;;;;;;18.91;69.10;99455.17;79388;1295;3013755;-60
2023/07/16 02:03:54;;;;;;;9.80;5.00;;;;;;;18.94;68.23;99457.70;79545;1298;3011709;-64
2023/07/16 02:06:21;;;;;;;8.60;4.00;;;;;;;18.92;68.41;99457.23;78304;1298;3028849;-60
2023/07/16 02:08:48;;;;;;;10.40;4.10;;;;;;;18.83;67.75;99454.70;79461;1296;3013054;-60
2023/07/16 02:11:15;;;;;;;11.10;4.70;;;;;;;18.79;67.52;99458.42;79564;1295;3011607;-62
2023/07/16 02:13:43;;;;;;;11.70;6.70;;;;;;;18.80;68.06;99453.37;78244;1295;3052885;-60
2023/07/16 02:16:10;;;;;;;16.90;7.00;;;;;;;18.77;68.06;99453.44;79470;1298;3013029;-62
2023/07/16 02:18:36;;;;;;;12.70;6.10;;;;;;;18.80;68.24;99456.56;79287;1296;3011596;-61
2023/07/16 02:21:04;;;;;;;11.70;6.10;;;;;;;18.82;68.40;99449.30;78272;1296;3028437;-60
2023/07/16 02:23:32;;;;;;;12.50;7.50;;;;;;;18.87;67.71;99451.81;79491;1295;3014896;-64
2023/07/16 02:25:58;;;;;;;11.90;7.00;;;;;;;18.88;67.52;99459.52;79522;1294;3011495;-65
2023/07/16 02:28:26;;;;;;;11.10;7.40;;;;;;;18.95;67.44;99453.63;78104;1296;3053345;-62
2023/07/16 02:30:53;;;;;;;15.40;7.00;;;;;;;18.98;67.10;99455.21;79453;1298;3013240;-62
2023/07/16 02:33:19;;;;;;;12.40;6.70;;;;;;;18.92;67.15;99456.54;79487;1298;3011632;-63
2023/07/16 02:35:54;;;;;;;12.60;7.40;;;;;;;18.87;67.50;99455.89;78237;1298;3027696;-63
2023/07/16 02:38:24;;;;;;;16.60;8.60;;;;;;;18.81;67.93;99457.17;78220;1298;3051311;-62
2023/07/16 02:40:50;;;;;;;12.70;7.30;;;;;;;18.76;67.61;99455.56;79441;1295;3020598;-64
2023/07/16 02:43:17;;;;;;;14.70;7.50;;;;;;;18.71;67.82;99462.91;79425;1294;3011828;-60
2023/07/16 02:45:47;;;;;;;23.30;8.50;;;;;;;18.68;68.20;99465.90;78236;1294;3050241;-66
2023/07/16 02:48:14;;;;;;;22.60;8.40;;;;;;;18.62;68.88;99462.84;79471;1298;3013092;-61
2023/07/16 02:50:46;;;;;;;18.50;9.10;;;;;;;18.62;68.34;99467.86;78995;1296;3013608;-64
2023/07/16 02:53:12;;;;;;;18.00;9.10;;;;;;;18.62;68.77;99469.23;79426;1294;3013655;-62
2023/07/16 02:55:39;;;;;;;17.00;8.20;;;;;;;18.57;68.86;99467.07;79287;1295;3011638;-63
2023/07/16 02:58:07;;;;;;;14.70;7.50;;;;;;;18.59;68.74;99467.45;78193;1298;3028766;-63
2023/07/16 03:00:34;;;;;;;11.70;6.20;;;;;;;18.59;68.74;99463.54;79471;1298;3013158;-62
2023/07/16 03:03:01;;;;;;;14.60;7.70;;;;;;;18.59;68.47;99463.48;79405;1295;3012824;-64
2023/07/16 03:05:29;;;;;;;16.10;9.00;;;;;;;18.57;68.28;99473.06;78234;1298;3027271;-62
2023/07/16 03:07:57;;;;;;;21.20;9.20;;;;;;;18.58;68.77;99472.29;79411;1295;3013629;-62
2023/07/16 03:10:26;;;;;;;12.20;6.20;;;;;;;18.64;69.17;99473.89;79502;1294;3011850;-63
2023/07/16 03:12:54;;;;;;;12.60;7.70;;;;;;;19.19;67.19;99470.27;78094;1301;3050665;-61
2023/07/16 03:15:23;;;;;;;16.80;8.30;;;;;;;19.55;65.95;99478.00;79465;1294;3011863;-62
2023/07/16 03:17:50;;;;;;;14.00;6.90;;;;;;;19.58;65.26;99481.09;79448;1295;3013331;-61
2023/07/16 03:20:18;;;;;;;13.90;7.60;;;;;;;19.50;65.42;99484.34;78236;1298;3052352;-64
2023/07/16 03:22:45;;;;;;;15.40;7.90;;;;;;;19.29;66.15;99489.38;79338;1295;3014371;-63
2023/07/16 03:25:12;;;;;;;19.50;8.40;;;;;;;19.18;66.47;99497.14;79267;1295;3011924;-60
2023/07/16 03:27:41;;;;;;;27.40;9.10;;;;;;;19.05;66.99;99500.88;78240;1298;3049784;-63
2023/07/16 03:30:08;;;;;;;33.60;12.30;;;;;;;18.93;67.33;99501.17;79552;1296;3011677;-60
2023/07/16 03:32:39;;;;;;;32.40;11.60;;;;;;;18.79;68.13;99496.05;78794;1301;3012907;-61
2023/07/16 03:35:06;;;;;;;30.00;11.40;;;;;;;18.70;68.55;99497.60;79268;1300;3021017;-62
2023/07/16 03:37:34;;;;;;;34.50;11.60;;;;;;;18.69;68.78;99495.58;79493;1296;3011612;-63
2023/07/16 03:40:13;;;;;;;34.20;12.60;;;;;;;18.76;68.04;99498.13;78251;1306;3051422;-62
2023/07/16 03:42:42;;;;;;;25.30;11.90;;;;;;;18.68;68.43;99505.63;78326;1294;3055924;-62
2023/07/16 03:45:10;;;;;;;22.00;10.80;;;;;;;18.60;68.94;99509.30;79311;1295;3013808;-60
2023/07/16 03:47:39;;;;;;;25.90;12.70;;;;;;;18.64;68.79;99510.45;78800;1300;3013627;-61
2023/07/16 03:50:06;;;;;;;25.50;10.80;;;;;;;18.65;68.46;99508.18;79285;1304;3013674;-61
2023/07/16 03:52:33;;;;;;;22.30;9.40;;;;;;;18.63;68.49;99509.09;79533;1296;3011735;-60
2023/07/16 03:55:02;;;;;;;14.30;7.30;;;;;;;18.57;68.63;99505.04;78174;1298;3069582;-63
2023/07/16 03:57:29;;;;;;;9.60;6.40;;;;;;;18.66;67.94;99508.66;79561;1294;3011576;-61
2023/07/16 03:59:56;;;;;;;15.30;8.70;;;;;;;18.66;68.18;99508.63;79516;1294;3011665;-63
2023/07/16 04:02:25;;;;;;;20.70;8.10;;;;;;;18.65;67.62;99511.55;78186;1298;3052977;-63
2023/07/16 04:04:51;;;;;;;18.70;10.60;;;;;;;18.65;67.76;99510.11;79315;1300;3013087;-61
2023/07/16 04:07:18;;;;;;;20.50;10.00;;;;;;;18.74;67.67;99514.98;79336;1294;3011966;-62
2023/07/16 04:09:46;;;;;;;24.70;12.20;;;;;;;18.74;66.97;99516.34;78178;1298;3028416;-63
2023/07/16 04:12:13;;;;;;;26.10;14.30;;;;;;;18.74;66.56;99517.29;79529;1296;3013781;-61
2023/07/16 04:14:39;;;;;;;23.10;10.30;;;;;;;18.73;66.78;99510.73;79422;1295;3011883;-61
2023/07/16 04:17:07;;;;;;;20.60;9.00;;;;;;;18.72;66.67;99517.13;78217;1295;3053126;-62
2023/07/16 04:19:35;;;;;;;12.50;6.90;;;;;;;18.82;66.44;99517.94;79480;1298;3013231;-63
2023/07/16 04:22:01;;;;;;;18.50;7.70;;;;;;;18.89;66.23;99510.41;79417;1295;3013525;-60
2023/07/16 04:24:29;;;;;;;12.60;6.00;;;;;;;18.93;65.79;99515.91;78221;1298;3069559;-61
2023/07/16 04:26:57;;;;;;;17.90;8.60;;;;;;;19.04;64.48;99520.71;79444;1295;3011909;-60
2023/07/16 04:29:24;;;;;;;15.40;8.20;;;;;;;19.15;64.36;99516.48;79442;1295;3011919;-61
2023/07/16 04:31:52;;;;;;;17.00;7.70;;;;;;;19.21;64.22;99521.34;78177;1296;3052180;-63
2023/07/16 04:34:19;;;;;;;15.70;7.40;;;;;;;19.27;64.12;99520.61;79426;1298;3012921;-61
2023/07/16 04:36:45;;;;;;;14.80;7.70;;;;;;;19.33;63.69;99521.85;79476;1295;3011569;-63
2023/07/16 04:39:13;;;;;;;14.40;6.70;;;;;;;19.40;63.21;99522.23;78236;1298;3028560;-61
2023/07/16 04:41:40;;;;;;;17.80;6.80;;;;;;;19.50;63.17;99521.77;79434;1294;3013378;-63
2023/07/16 04:44:06;;;;;;;17.40;6.90;;;;;;;19.51;62.84;99524.48;79409;1294;3012568;-62
2023/07/16 04:46:34;;;;;;;17.50;7.30;;;;;;;19.52;62.13;99523.52;78262;1296;3028481;-62
2023/07/16 04:49:01;;;;;;;16.20;6.90;;;;;;;19.59;61.50;99523.54;79439;1298;3011721;-60
2023/07/16 04:51:28;;;;;;;13.60;7.00;;;;;;;19.67;62.36;99527.80;79491;1298;3013056;-61
2023/07/16 04:53:55;;;;;;;8.70;4.90;;;;;;;19.78;61.05;99529.77;78199;1298;3025890;-63
2023/07/16 04:56:22;;;;;;;9.00;5.50;;;;;;;19.80;61.44;99530.48;79484;1295;3013687;-62
2023/07/16 04:58:50;;;;;;;8.50;4.50;;;;;;;19.75;61.48;99531.79;79549;1294;3011918;-63
2023/07/16 05:01:17;;;;;;;10.20;5.00;;;;;;;19.81;60.94;99532.69;78286;1296;3026459;-61
2023/07/16 05:03:44;;;;;;;10.40;5.10;;;;;;;19.86;61.57;99535.55;79489;1295;3012824;-60
2023/07/16 05:06:11;;;;;;;11.00;4.90;;;;;;;19.94;61.18;99536.42;79452;1298;3011511;-63
2023/07/16 05:08:39;;;;;;;9.60;5.10;;;;;;;20.06;60.47;99539.10;78239;1298;3028284;-61
2023/07/16 05:11:06;;;;;;;8.90;4.70;;;;;;;20.14;60.58;99546.87;79435;1298;3013641;-60
2023/07/16 05:13:33;;;;;;;11.70;4.90;;;;;;;20.17;61.02;99546.20;79542;1298;3011632;-61
2023/07/16 05:16:05;;;;;;;11.20;5.10;;;;;;;20.28;60.83;99541.92;78228;1298;3053126;-62
2023/07/16 05:18:32;;;;;;;9.50;3.80;;;;;;;20.24;60.57;99547.12;79638;1295;3012927;-61
2023/07/16 05:20:58;;;;;;;8.20;3.10;;;;;;;20.21;59.92;99546.67;79467;1295;3012964;-61
2023/07/16 05:23:27;;;;;;;6.40;3.50;;;;;;;20.25;59.55;99552.37;78241;1298;3028520;-61
2023/07/16 05:25:53;;;;;;;8.40;5.00;;;;;;;20.43;60.17;99553.38;79459;1295;3013789;-65
2023/07/16 05:28:20;;;;;;;4.80;3.30;;;;;;;20.43;59.34;99559.30;79425;1294;3011633;-64
2023/07/16 05:30:48;;;;;;;5.50;3.40;;;;;;;20.33;59.21;99557.47;78262;1295;3051843;-62
2023/07/16 05:33:16;;;;;;;7.30;3.10;;;;;;;20.41;59.53;99555.40;79493;1298;3013342;-62
2023/07/16 05:35:42;;;;;;;5.10;3.50;;;;;;;20.45;59.96;99560.31;79479;1295;3011821;-62
2023/07/16 05:38:11;;;;;;;8.80;3.70;;;;;;;20.59;59.33;99558.90;78274;1298;3067987;-63
2023/07/16 05:40:38;;;;;;;6.00;3.40;;;;;;;20.73;59.52;99564.50;79593;1295;3013611;-63
2023/07/16 05:43:05;;;;;;;5.10;2.70;;;;;;;20.78;59.43;99567.88;79462;1294;3011891;-62
2023/07/16 05:45:32;;;;;;;6.20;2.60;;;;;;;20.60;59.91;99570.20;78178;1295;3054789;-65
2023/07/16 05:47:59;;;;;;;5.30;2.70;;;;;;;20.62;60.59;99567.37;79274;1317;3013185;-63
2023/07/16 05:50:26;;;;;;;3.90;2.70;;;;;;;20.74;60.54;99566.55;79424;1298;3011627;-61
2023/07/16 05:52:54;;;;;;;3.70;2.40;;;;;;;20.88;60.59;99561.46;78333;1298;3027071;-64
2023/07/16 05:55:20;;;;;;;6.30;3.00;;;;;;;20.85;60.31;99564.30;79459;1294;3013856;-61
2023/07/16 05:57:47;;;;;;;7.30;2.30;;;;;;;20.88;60.65;99563.50;79427;1298;3011276;-61
2023/07/16 06:00:14;;;;;;;7.10;2.70;;;;;;;20.97;60.03;99567.56;78258;1298;3027993;-63
2023/07/16 06:02:44;;;;;;;5.00;2.60;;;;;;;20.92;59.96;99570.67;79575;1295;3011504;-62
2023/07/16 06:05:13;;;;;;;6.50;2.80;;;;;;;20.89;60.58;99572.32;78979;1298;3013559;-62
2023/07/16 06:07:41;;;;;;;4.70;2.80;;;;;;;20.92;60.45;99573.37;79521;1298;3013885;-63
2023/07/16 06:10:08;;;;;;;7.00;2.50;;;;;;;21.04;60.28;99563.10;79472;1298;3011833;-65
2023/07/16 06:12:37;;;;;;;7.60;2.80;;;;;;;21.16;59.56;99564.46;78292;1295;3057074;-63
2023/07/16 06:15:05;;;;;;;10.20;2.60;;;;;;;21.17;59.33;99563.66;79544;1295;3013598;-61
2023/07/16 06:17:31;;;;;;;3.70;2.70;;;;;;;21.27;58.93;99564.48;79461;1294;3013077;-64
2023/07/16 06:19:59;;;;;;;7.20;2.60;;;;;;;21.22;59.33;99570.34;78315;1298;3052291;-63
2023/07/16 06:22:26;;;;;;;4.30;2.90;;;;;;;21.21;59.67;99569.19;79526;1296;3013633;-64
2023/07/16 06:24:53;;;;;;;3.60;2.40;;;;;;;21.32;59.07;99569.27;79507;1298;3011775;-62
2023/07/16 06:27:20;;;;;;;5.90;2.90;;;;;;;21.46;58.96;99568.58;78309;1298;3027395;-63
2023/07/16 06:29:47;;;;;;;7.50;2.60;;;;;;;21.48;58.97;99576.66;79460;1295;3018763;-63
2023/07/16 06:32:14;;;;;;;5.20;2.80;;;;;;;21.61;58.75;99569.83;79534;1294;3012662;-62
2023/07/16 06:34:42;;;;;;;7.20;3.10;;;;;;;21.68;59.17;99571.65;78285;1298;3027369;-63
2023/07/16 06:37:08;;;;;;;5.40;2.70;;;;;;;21.77;58.80;99569.80;79445;1295;3013807;-64
2023/07/16 06:39:35;;;;;;;7.40;3.00;;;;;;;21.81;58.06;99578.50;79610;1295;3012818;-62
2023/07/16 06:42:04;;;;;;;3.20;2.60;;;;;;;21.85;57.65;99575.48;78325;1298;3025411;-62
2023/07/16 06:44:31;;;;;;;5.80;2.80;;;;;;;21.89;57.46;99569.73;79523;1294;3013276;-64
2023/07/16 06:46:57;;;;;;;3.00;2.30;;;;;;;21.97;57.11;99567.84;79483;1295;3011670;-64
2023/07/16 06:49:25;;;;;;;9.30;2.50;;;;;;;22.19;57.01;99570.15;78209;1298;3051293;-61
2023/07/16 06:51:52;;;;;;;6.00;2.60;;;;;;;22.16;56.17;99572.17;79450;1298;3013222;-64
2023/07/16 06:54:18;;;;;;;3.60;2.60;;;;;;;22.19;56.72;99568.13;79407;1294;3011620;-62
2023/07/16 06:56:46;;;;;;;5.70;2.40;;;;;;;22.28;56.22;99567.77;78273;1298;3029187;-63
2023/07/16 06:59:13;;;;;;;3.60;2.40;;;;;;;22.32;55.88;99564.95;79393;1295;3013047;-63
2023/07/16 07:01:40;;;;;;;6.00;2.60;;;;;;;22.47;55.29;99568.52;79513;1294;3013416;-62
2023/07/16 07:04:08;;;;;;;10.90;2.60;;;;;;;22.53;54.88;99577.20;78220;1295;3029326;-62
2023/07/16 07:06:36;;;;;;;6.00;2.40;;;;;;;22.45;54.93;99579.52;79570;1298;3013741;-61
2023/07/16 07:09:04;;;;;;;7.50;2.30;;;;;;;22.51;54.24;99582.93;79432;1294;3011840;-64
2023/07/16 07:11:32;;;;;;;3.10;2.00;;;;;;;22.60;52.70;99583.42;78273;1298;3056463;-63
2023/07/16 07:14:02;;;;;;;6.10;2.10;;;;;;;22.57;51.55;99587.24;79404;1298;3011759;-61
2023/07/16 07:16:31;;;;;;;3.00;1.60;;;;;;;22.57;50.70;99574.79;79016;1295;3013668;-65
2023/07/16 07:18:57;;;;;;;6.90;2.40;;;;;;;22.73;50.90;99574.48;79550;1295;3013083;-63
2023/07/16 07:21:24;;;;;;;4.70;1.70;;;;;;;22.93;50.71;99573.51;79265;1296;3011473;-61
2023/07/16 07:23:52;;;;;;;4.80;1.70;;;;;;;22.97;49.92;99575.45;78154;1297;3029002;-65
2023/07/16 07:26:19;;;;;;;3.90;1.60;;;;;;;22.78;49.07;99580.04;79429;1298;3013899;-66
2023/07/16 07:28:46;;;;;;;3.60;1.90;;;;;;;22.81;49.96;99575.43;79267;1296;3011908;-64
2023/07/16 07:31:14;;;;;;;4.10;1.50;;;;;;;22.92;49.60;99575.45;78054;1295;3053209;-64
2023/07/16 07:33:41;;;;;;;6.40;1.60;;;;;;;23.02;49.29;99570.40;79248;1297;3013581;-68
2023/07/16 07:36:07;;;;;;;4.20;1.50;;;;;;;23.08;48.99;99575.98;79444;1301;3013041;-70
2023/07/16 07:38:36;;;;;;;4.80;1.50;;;;;;;23.00;48.65;99577.27;78111;1297;3026536;-70
2023/07/16 07:41:04;;;;;;;2.60;1.40;;;;;;;23.05;48.63;99584.19;79189;1296;3020764;-67
2023/07/16 07:43:31;;;;;;;5.60;1.40;;;;;;;23.03;48.09;99582.30;79265;1297;3011671;-66
2023/07/16 07:45:59;;;;;;;4.40;1.30;;;;;;;23.03;46.93;99577.27;78035;1298;3054012;-67
2023/07/16 07:48:26;;;;;;;7.80;1.40;;;;;;;23.03;47.03;99580.12;79246;1301;3013326;-66
2023/07/16 07:50:52;;;;;;;2.90;1.40;;;;;;;23.03;47.48;99584.44;79343;1298;3011433;-69
2023/07/16 07:53:20;;;;;;;2.60;1.40;;;;;;;23.25;47.22;99565.48;78128;1300;3028733;-66
2023/07/16 07:55:47;;;;;;;1.90;1.30;;;;;;;23.49;46.19;99560.12;79212;1300;3013035;-67
2023/07/16 07:58:13;;;;;;;4.30;1.50;;;;;;;23.55;44.89;99571.98;79309;1300;3012841;-67
2023/07/16 08:00:41;;;;;;;2.90;1.10;;;;;;;23.49;45.12;99572.86;78078;1300;3028634;-62
2023/07/16 08:03:08;;;;;;;2.50;1.10;;;;;;;23.49;44.38;99570.02;79177;1296;3013430;-67
2023/07/16 08:05:35;;;;;;;4.00;1.50;;;;;;;23.54;43.79;99569.98;79234;1297;3011945;-68
2023/07/16 08:08:04;;;;;;;2.40;1.10;;;;;;;23.58;43.13;99570.36;78119;1301;3067857;-74
2023/07/16 08:10:30;;;;;;;5.10;1.50;;;;;;;23.57;43.06;99571.86;79549;1295;3012999;-72
2023/07/16 08:12:57;;;;;;;1.90;1.10;;;;;;;23.65;43.18;99562.64;79477;1300;3013146;-71
2023/07/16 08:15:24;;;;;;;1.30;1.00;;;;;;;23.88;43.40;99556.06;78212;1298;3025414;-68
2023/07/16 08:17:51;;;;;;;2.00;1.00;;;;;;;24.04;42.65;99553.39;79339;1300;3013082;-67
2023/07/16 08:20:18;;;;;;;2.10;1.10;;;;;;;24.22;41.95;99551.61;79511;1295;3013481;-69
2023/07/16 08:22:46;;;;;;;4.20;1.40;;;;;;;24.44;41.75;99556.65;78248;1300;3026909;-75
2023/07/16 08:25:13;;;;;;;3.70;1.30;;;;;;;24.45;41.61;99561.32;79516;1300;3013179;-68
2023/07/16 08:27:39;;;;;;;1.80;1.00;;;;;;;24.40;40.45;99563.31;79417;1296;3012036;-68
2023/07/16 08:30:08;;;;;;;4.80;1.20;;;;;;;24.16;39.96;99561.82;78046;1300;3028140;-66
2023/07/16 08:32:34;;;;;;;2.80;1.10;;;;;;;24.11;41.06;99558.07;79376;1301;3013189;-64
2023/07/16 08:35:01;;;;;;;3.20;1.10;;;;;;;24.09;42.31;99558.19;79238;1300;3011918;-68
2023/07/16 08:37:28;;;;;;;2.80;1.20;;;;;;;24.36;42.19;99552.63;78246;1299;3068766;-67
2023/07/16 08:39:55;;;;;;;5.20;1.70;;;;;;;24.61;41.85;99549.09;79497;1295;3013390;-67
2023/07/16 08:42:22;;;;;;;7.10;1.20;;;;;;;24.78;41.91;99552.95;79401;1300;3011657;-65
2023/07/16 08:44:50;;;;;;;3.20;1.30;;;;;;;24.52;41.18;99556.94;78274;1296;3026545;-70
2023/07/16 08:47:17;;;;;;;2.40;1.20;;;;;;;24.36;40.93;99555.80;79500;1301;3013335;-69
2023/07/16 08:50:10;;;;;;;3.40;1.20;;;;;;;24.47;41.29;99549.05;79711;1300;3011492;-65
2023/07/16 08:52:40;;;;;;;;;;;;;;;24.47;41.63;99546.40;78316;1296;3069729;-65
2023/07/16 08:55:07;;;;;;;3.90;1.30;;;;;;;24.26;39.90;99547.77;79402;1297;3013058;-67
2023/07/16 08:57:35;;;;;;;5.30;1.20;;;;;;;24.58;39.44;99540.45;79941;1295;3013105;-69
2023/07/16 09:00:02;;;;;;;2.50;1.20;;;;;;;24.89;39.38;99544.89;76180;1295;3052961;-70
2023/07/16 09:02:29;;;;;;;3.70;1.20;;;;;;;24.89;39.90;99540.89;79237;1298;3013662;-68
2023/07/16 09:04:56;;;;;;;4.30;1.00;;;;;;;25.11;39.13;99536.60;79197;1301;3011886;-72
2023/07/16 09:07:24;;;;;;;3.10;1.20;;;;;;;25.22;38.46;99536.25;78341;1301;3028353;-66
2023/07/16 09:09:58;;;;;;;2.00;1.10;;;;;;;25.17;37.99;99539.11;79507;1297;3011759;-67
2023/07/16 09:12:26;;;;;;;2.80;1.30;;;;;;;25.27;38.21;99544.71;78192;1300;3057107;-70
2023/07/16 09:14:53;;;;;;;2.40;1.20;;;;;;;25.53;38.55;99538.06;79780;1299;3014830;-70
2023/07/16 09:17:24;;;;;;;3.00;1.40;;;;;;;25.57;37.99;99533.73;79555;1296;3011902;-69
2023/07/16 09:19:52;;;;;;;3.50;1.20;;;;;;;25.37;38.13;99546.09;78304;1296;3051405;-69
2023/07/16 09:22:19;;;;;;;3.10;1.20;;;;;;;24.95;38.28;99543.98;79476;1298;3012983;-67
2023/07/16 09:24:47;;;;;;;3.70;1.20;;;;;;;24.87;38.59;99539.94;79372;1300;3011627;-69
2023/07/16 09:27:14;;;;;;;2.20;1.20;;;;;;;24.89;36.99;99542.13;78121;1297;3056902;-67
2023/07/16 09:29:41;;;;;;;3.40;1.20;;;;;;;24.94;37.83;99541.34;79362;1297;3013177;-69
2023/07/16 09:32:08;;;;;;;6.00;1.10;;;;;;;24.81;38.58;99543.66;79546;1295;3011656;-66
2023/07/16 09:34:36;;;;;;;2.10;1.20;;;;;;;25.10;38.48;99528.35;78189;1301;3026603;-65
2023/07/16 09:37:04;;;;;;;4.20;1.20;;;;;;;25.29;37.96;99530.69;79562;1299;3013599;-71
2023/07/16 09:39:31;;;;;;;3.50;0.90;;;;;;;25.00;37.82;99530.41;79508;1298;3011823;-66
2023/07/16 09:41:58;;;;;;;4.40;0.90;;;;;;;24.79;37.16;99539.01;78272;1297;3057334;-78
2023/07/16 09:44:25;;;;;;;2.80;1.10;;;;;;;24.76;36.70;99532.02;79588;1296;3013113;-70
2023/07/16 09:46:51;;;;;;;2.90;0.90;;;;;;;24.99;36.90;99523.94;79478;1295;3011619;-67
2023/07/16 09:49:19;;;;;;;1.40;0.90;;;;;;;25.28;36.00;99520.04;78265;1301;3028505;-69
2023/07/16 09:51:46;;;;;;;5.90;1.20;;;;;;;25.66;36.41;99514.98;79582;1295;3012955;-71
2023/07/16 09:54:15;;;;;;;2.60;1.10;;;;;;;25.84;36.42;99514.73;80660;1296;3011698;-71
2023/07/16 09:56:45;;;;;;;2.60;1.10;;;;;;;25.92;35.86;99514.23;78335;1300;3056197;-70
2023/07/16 09:59:14;;;;;;;5.70;1.00;;;;;;;25.95;34.90;99523.77;79586;1295;3011530;-68
2023/07/16 10:01:42;;;;;;;2.00;1.00;;;;;;;25.81;34.67;99518.16;78339;1295;3053617;-72
2023/07/16 10:04:12;;;;;;;4.30;0.80;;;;;;;25.85;34.75;99521.70;80679;1294;3019053;-67
2023/07/16 10:06:55;;;;;;;5.60;1.10;;;;;;;25.83;34.36;99520.20;78912;1295;3011694;-67
2023/07/16 10:09:40;;;;;;;2.10;1.10;;;;;;;25.77;34.73;99522.89;78436;1301;3052930;-68
2023/07/16 10:12:19;;;;;;;3.70;0.80;;;;;;;25.97;34.65;99515.79;78242;1295;3069967;-65
2023/07/16 10:14:47;;;;;;;3.40;0.70;;;;;;;26.13;34.18;99526.21;78199;1300;3052699;-65
2023/07/16 10:17:15;;;;;;;2.70;1.00;;;;;;;26.12;33.36;99519.38;79600;1298;3013356;-66
2023/07/16 10:19:57;;;;;;;3.10;0.70;;;;;;;26.27;34.00;99515.08;79573;1295;3011615;-68
2023/07/16 10:23:57;;;;;;;2.50;0.90;;;;;;;26.30;34.82;99522.60;80142;1305;3013620;-66
2023/07/16 10:26:28;;;;;;;3.40;0.90;;;;;;;26.07;35.57;99514.39;78582;1305;3013338;-68
2023/07/16 10:28:55;;;;;;;1.30;0.90;;;;;;;26.46;35.55;99513.77;79112;1305;3013627;-70
2023/07/16 10:31:23;;;;;;;3.50;0.80;;;;;;;26.44;35.15;99526.27;79129;1301;3011646;-67
2023/07/16 10:34:01;;;;;;;2.50;1.20;;;;;;;26.06;34.97;99528.17;77913;1307;3053447;-67
2023/07/16 10:36:37;;;;;;;3.50;1.00;;;;;;;26.35;34.70;99514.30;75937;1298;5933841;-66
2023/07/16 10:39:06;;;;;;;1.60;0.90;;;;;;;26.49;34.40;99526.67;78856;1301;3011968;-69
2023/07/16 10:41:33;;;;;;;2.80;1.00;;;;;;;26.28;34.66;99531.73;79497;1304;3013062;-70
2023/07/16 10:43:59;;;;;;;3.00;1.20;;;;;;;26.35;35.03;99524.00;79477;1299;3011374;-65
2023/07/16 10:46:27;;;;;;;7.00;1.10;;;;;;;26.42;35.56;99522.80;78231;1304;3028069;-66
2023/07/16 10:48:54;;;;;;;4.60;1.00;;;;;;;26.47;35.51;99523.94;79406;1302;3019379;-65
2023/07/16 10:51:27;;;;;;;2.00;0.90;;;;;;;26.39;35.50;99527.77;79378;1305;3011937;-66
2023/07/16 10:53:56;;;;;;;1.50;0.90;;;;;;;26.13;35.66;99526.75;78167;1301;3068692;-68
2023/07/16 10:56:22;;;;;;;3.20;1.00;;;;;;;26.42;35.80;99516.85;79483;1297;3013425;-66
2023/07/16 10:58:49;;;;;;;3.60;1.30;;;;;;;26.45;35.35;99522.39;79523;1298;3013101;-67
2023/07/16 11:01:17;;;;;;;3.30;1.00;;;;;;;26.57;35.14;99518.16;78059;1302;3053391;-67
2023/07/16 11:03:43;;;;;;;3.60;1.30;;;;;;;26.53;34.42;99522.94;79374;1302;3012951;-64
2023/07/16 11:06:11;;;;;;;3.50;1.10;;;;;;;26.19;34.17;99518.60;79441;1301;3012789;-65
2023/07/16 11:08:40;;;;;;;3.70;1.30;;;;;;;26.21;34.37;99507.19;78409;1299;3069550;-64
2023/07/16 11:11:06;;;;;;;1.80;1.10;;;;;;;26.57;34.46;99511.36;79175;1298;3013252;-65
2023/07/16 11:13:33;;;;;;;2.60;1.10;;;;;;;26.64;34.53;99510.56;79348;1301;3011732;-66
2023/07/16 11:16:07;;;;;;;6.30;1.10;;;;;;;26.82;34.61;99517.02;78055;1299;3026545;-65
2023/07/16 11:18:34;;;;;;;1.90;1.30;;;;;;;27.04;34.25;99511.02;79540;1299;3013988;-62
2023/07/16 11:21:03;;;;;;;2.90;1.40;;;;;;;26.98;34.60;99513.06;78249;1300;3052636;-65